Time;durP1;ratioP1;P1;durP2;ratioP2;P2;SDS_P1;SDS_P2;PMS_P1;PMS_P2;Temp;Humidity;BMP_temperature;BMP_pressure;BME280_temperature;BME280_humidity;BME280_pressure;Samples;Min_cycle;Max_cycle;Signal;HPM_P1;HPM_P2
2023/01/08 00:02:00;;;;;;;6.00;4.07;;;9.10;99.90;;;;;;6153256;23;20361;-82
2023/01/08 00:04:25;;;;;;;5.57;4.00;;;9.10;99.90;;;;;;6153005;23;20013;-81
2023/01/08 00:06:51;;;;;;;6.00;4.40;;;9.10;99.90;;;;;;6154739;23;20036;-82
2023/01/08 00:09:17;;;;;;;5.95;4.20;;;9.00;99.90;;;;;;6155114;23;20115;-82
2023/01/08 00:11:43;;;;;;;5.68;4.50;;;9.00;99.90;;;;;;6155161;23;20017;-82
2023/01/08 00:14:10;;;;;;;5.90;3.90;;;9.10;99.90;;;;;;6152441;23;20345;-81
2023/01/08 00:16:36;;;;;;;6.15;4.68;;;9.00;99.90;;;;;;6154758;23;20039;-83
2023/01/08 00:19:02;;;;;;;6.82;4.20;;;9.00;99.90;;;;;;6128043;23;20018;-82
2023/01/08 00:21:28;;;;;;;6.43;4.30;;;9.00;99.90;;;;;;6154660;23;20084;-83
2023/01/08 00:23:54;;;;;;;5.20;4.20;;;9.00;99.90;;;;;;6154544;23;20021;-82
2023/01/08 00:26:20;;;;;;;6.65;4.72;;;9.00;99.90;;;;;;6154758;23;20016;-82
2023/01/08 00:28:45;;;;;;;8.68;4.75;;;9.00;99.90;;;;;;6152259;23;20021;-82
2023/01/08 00:31:12;;;;;;;5.53;3.95;;;9.00;99.90;;;;;;6152736;23;20021;-83
2023/01/08 00:33:38;;;;;;;7.95;4.47;;;9.00;99.90;;;;;;6154035;23;20088;-82
2023/01/08 00:36:22;;;;;;;5.32;3.88;;;9.00;99.90;;;;;;6155596;23;20372;-82
2023/01/08 00:38:48;;;;;;;;;;;9.00;99.90;;;;;;6154454;23;20432;-82
2023/01/08 00:41:15;;;;;;;6.40;4.30;;;9.00;99.90;;;;;;6152825;23;19913;-82
2023/01/08 00:43:40;;;;;;;5.82;4.20;;;9.20;99.90;;;;;;6151924;23;20017;-82
2023/01/08 00:46:07;;;;;;;6.45;4.38;;;9.30;99.90;;;;;;6152451;23;20298;-82
2023/01/08 00:48:36;;;;;;;7.45;4.43;;;9.10;99.90;;;;;;6127781;23;20025;-82
2023/01/08 00:51:02;;;;;;;6.13;4.18;;;9.00;99.90;;;;;;6154423;23;20020;-83
2023/01/08 00:53:28;;;;;;;5.90;4.80;;;9.10;99.90;;;;;;6153157;23;20016;-82
2023/01/08 00:56:08;;;;;;;6.30;4.10;;;9.00;99.90;;;;;;6154422;23;20401;-83
2023/01/08 00:58:34;;;;;;;5.70;4.10;;;9.10;99.90;;;;;;6151868;23;20014;-82
2023/01/08 01:01:00;;;;;;;8.40;4.55;;;9.10;99.90;;;;;;6152369;23;20543;-82
2023/01/08 01:03:26;;;;;;;9.70;4.35;;;9.00;99.90;;;;;;6154187;23;20068;-83
2023/01/08 01:06:02;;;;;;;6.45;4.57;;;9.40;99.90;;;;;;6154528;23;20048;-83
2023/01/08 01:08:27;;;;;;;5.35;4.20;;;9.10;99.90;;;;;;6152433;23;20022;-82
2023/01/08 01:10:53;;;;;;;7.88;4.50;;;9.10;99.90;;;;;;6154433;23;20056;-83
2023/01/08 01:13:19;;;;;;;6.15;4.70;;;9.20;99.90;;;;;;6153471;23;20018;-82
2023/01/08 01:15:44;;;;;;;6.35;4.68;;;9.30;99.90;;;;;;6153949;23;20080;-82
2023/01/08 01:18:10;;;;;;;7.60;5.22;;;9.20;99.90;;;;;;6154271;23;20293;-82
2023/01/08 01:20:35;;;;;;;7.57;5.50;;;9.30;99.90;;;;;;6154137;23;20045;-83
2023/01/08 01:23:03;;;;;;;6.22;4.65;;;9.10;99.90;;;;;;6153435;23;20076;-83
2023/01/08 01:25:28;;;;;;;6.80;4.80;;;9.10;99.90;;;;;;6152806;23;20009;-82
2023/01/08 01:27:54;;;;;;;7.97;4.82;;;9.20;99.90;;;;;;6153579;23;20009;-82
2023/01/08 01:30:19;;;;;;;7.90;4.90;;;9.10;99.90;;;;;;6151983;23;20017;-83
2023/01/08 01:32:45;;;;;;;7.63;4.85;;;9.00;99.90;;;;;;6154158;23;20502;-83
2023/01/08 01:35:11;;;;;;;8.75;5.20;;;9.20;99.90;;;;;;6154047;23;20010;-82
2023/01/08 01:37:36;;;;;;;6.70;5.18;;;9.00;99.90;;;;;;6153977;23;20013;-83
2023/01/08 01:40:02;;;;;;;9.20;4.70;;;9.30;99.90;;;;;;6151892;23;20068;-82
2023/01/08 01:42:40;;;;;;;6.88;5.03;;;9.00;99.90;;;;;;6152140;23;20013;-83
2023/01/08 01:45:21;;;;;;;6.32;4.50;;;9.00;99.90;;;;;;6152350;23;20060;-83
2023/01/08 01:48:09;;;;;;;7.38;4.47;;;9.00;99.90;;;;;;6152067;23;20064;-83
2023/01/08 01:50:49;;;;;;;9.40;4.50;;;9.10;99.90;;;;;;6152641;23;20052;-83
2023/01/08 01:53:29;;;;;;;7.57;4.40;;;9.10;99.90;;;;;;6152009;23;20361;-83
2023/01/08 01:55:56;;;;;;;7.82;4.15;;;9.00;99.90;;;;;;6151575;23;20067;-83
2023/01/08 01:58:24;;;;;;;6.88;3.50;;;9.20;99.90;;;;;;6151866;23;20021;-83
2023/01/08 02:00:52;;;;;;;8.20;3.50;;;9.00;99.90;;;;;;6151886;23;20029;-83
2023/01/08 02:03:22;;;;;;;6.50;3.22;;;9.00;99.90;;;;;;6151863;23;20471;-83
2023/01/08 02:06:02;;;;;;;5.75;3.03;;;8.90;99.90;;;;;;6151864;23;20445;-81
2023/01/08 02:08:43;;;;;;;7.72;3.05;;;8.90;99.90;;;;;;6153832;23;20432;-82
2023/01/08 02:11:21;;;;;;;11.63;3.13;;;8.80;99.90;;;;;;6152874;23;20069;-82
2023/01/08 02:13:55;;;;;;;10.50;2.72;;;8.80;99.90;;;;;;6126889;23;20031;-82
2023/01/08 02:16:39;;;;;;;9.40;2.95;;;8.80;99.90;;;;;;6151761;23;20302;-82
2023/01/08 02:19:21;;;;;;;;;;;9.00;99.90;;;;;;6152231;23;20389;-82
2023/01/08 02:22:10;;;;;;;8.13;2.63;;;8.70;99.90;;;;;;6151772;23;19978;-81
2023/01/08 02:24:42;;;;;;;7.47;2.45;;;8.60;99.90;;;;;;6151176;23;20018;-82
2023/01/08 02:27:08;;;;;;;8.15;2.55;;;8.60;99.90;;;;;;6127166;23;20048;-82
2023/01/08 02:29:34;;;;;;;6.93;2.20;;;8.60;99.90;;;;;;6127037;23;20021;-82
2023/01/08 02:32:00;;;;;;;9.75;2.55;;;8.50;99.90;;;;;;6151633;23;20477;-82
2023/01/08 02:34:27;;;;;;;13.32;2.72;;;9.10;99.90;;;;;;6151499;23;20089;-83
2023/01/08 02:36:55;;;;;;;11.60;2.78;;;8.80;99.90;;;;;;6153504;23;20017;-82
2023/01/08 02:39:32;;;;;;;14.80;2.92;;;8.50;99.90;;;;;;6153020;23;20064;-81
2023/01/08 02:42:11;;;;;;;10.60;2.83;;;8.50;99.90;;;;;;6151653;23;20072;-82
2023/01/08 02:44:54;;;;;;;13.18;3.05;;;8.40;99.90;;;;;;6151487;23;20021;-83
2023/01/08 02:47:45;;;;;;;12.18;2.40;;;8.40;99.90;;;;;;6151595;23;20096;-82
2023/01/08 02:50:17;;;;;;;8.80;2.40;;;8.40;99.90;;;;;;6151956;23;20340;-82
2023/01/08 02:52:54;;;;;;;10.68;2.42;;;8.30;99.90;;;;;;6151489;23;20116;-82
2023/01/08 02:55:22;;;;;;;12.10;3.08;;;8.30;99.90;;;;;;6153121;23;20104;-82
2023/01/08 02:57:48;;;;;;;11.65;3.00;;;8.50;99.90;;;;;;6154613;23;20084;-83
2023/01/08 03:00:15;;;;;;;13.88;2.70;;;8.20;99.90;;;;;;6152227;23;20504;-82
2023/01/08 03:02:42;;;;;;;16.42;2.85;;;8.20;99.90;;;;;;6151420;23;20068;-81
2023/01/08 03:05:25;;;;;;;12.52;2.58;;;8.20;99.90;;;;;;6151339;23;20025;-82
2023/01/08 03:07:50;;;;;;;15.48;3.65;;;8.20;99.90;;;;;;6152853;23;20044;-82
2023/01/08 03:10:20;;;;;;;12.20;2.75;;;8.20;99.90;;;;;;6152805;23;20025;-82
2023/01/08 03:13:00;;;;;;;9.05;2.88;;;8.20;99.90;;;;;;6153326;23;20006;-82
2023/01/08 03:15:41;;;;;;;14.45;2.85;;;8.20;99.90;;;;;;6151611;23;20018;-82
2023/01/08 03:18:12;;;;;;;12.25;2.80;;;8.20;99.90;;;;;;6151739;23;20018;-82
2023/01/08 03:20:38;;;;;;;12.48;2.90;;;8.10;99.90;;;;;;6153466;23;20014;-82
2023/01/08 03:23:08;;;;;;;12.82;3.00;;;8.20;99.90;;;;;;6150813;23;20045;-82
2023/01/08 03:25:39;;;;;;;14.95;3.22;;;8.10;99.90;;;;;;6151576;23;20045;-82
2023/01/08 03:28:10;;;;;;;16.27;2.65;;;8.00;99.90;;;;;;6151526;23;20024;-82
2023/01/08 03:30:39;;;;;;;15.18;2.92;;;8.00;99.90;;;;;;6151769;23;20355;-82
2023/01/08 03:33:06;;;;;;;9.77;2.95;;;8.00;99.90;;;;;;6153153;23;20014;-83
2023/01/08 03:35:33;;;;;;;12.90;2.90;;;8.00;99.90;;;;;;6151507;23;20023;-82
2023/01/08 03:38:10;;;;;;;14.05;3.05;;;8.00;99.90;;;;;;6150475;23;20017;-82
2023/01/08 03:40:41;;;;;;;11.05;3.05;;;8.00;99.90;;;;;;6151474;23;20014;-82
2023/01/08 03:43:07;;;;;;;12.10;3.25;;;7.90;99.90;;;;;;6153466;23;20016;-82
2023/01/08 03:45:35;;;;;;;13.88;3.03;;;7.90;99.90;;;;;;6155768;23;20013;-83
2023/01/08 03:48:03;;;;;;;13.35;3.42;;;7.90;99.90;;;;;;6153427;23;20027;-82
2023/01/08 03:50:31;;;;;;;10.63;3.10;;;7.80;99.90;;;;;;6151516;23;20336;-82
2023/01/08 03:52:56;;;;;;;12.05;3.25;;;7.80;99.90;;;;;;6152217;23;20017;-83
2023/01/08 03:55:22;;;;;;;11.95;3.38;;;7.80;99.90;;;;;;6153085;23;20018;-82
2023/01/08 03:57:48;;;;;;;10.85;3.03;;;7.80;99.90;;;;;;6152879;23;20436;-82
2023/01/08 04:00:14;;;;;;;11.43;3.05;;;7.90;99.90;;;;;;6151281;23;20027;-82
2023/01/08 04:02:41;;;;;;;10.07;3.20;;;7.80;99.90;;;;;;6150999;23;20013;-82
2023/01/08 04:05:08;;;;;;;10.55;2.95;;;7.80;99.90;;;;;;6153379;23;20012;-82
2023/01/08 04:07:33;;;;;;;10.05;3.28;;;7.90;99.90;;;;;;6150639;23;20022;-82
2023/01/08 04:09:59;;;;;;;9.45;3.45;;;7.90;99.90;;;;;;6152518;23;20024;-82
2023/01/08 04:12:24;;;;;;;11.93;3.20;;;7.90;99.90;;;;;;6151658;23;20048;-82
2023/01/08 04:14:50;;;;;;;14.65;3.97;;;8.10;99.90;;;;;;6152791;23;20384;-82
2023/01/08 04:17:16;;;;;;;6.93;3.13;;;7.90;99.90;;;;;;6154732;23;20072;-81
2023/01/08 04:19:41;;;;;;;8.77;3.50;;;7.90;99.90;;;;;;6152879;23;20104;-82
2023/01/08 04:22:09;;;;;;;11.68;3.60;;;7.90;99.90;;;;;;6154117;23;20007;-82
2023/01/08 04:24:35;;;;;;;10.45;4.00;;;7.90;99.90;;;;;;6152527;23;20010;-82
2023/01/08 04:27:01;;;;;;;14.00;4.28;;;8.00;99.90;;;;;;6152808;23;20067;-82
2023/01/08 04:29:26;;;;;;;12.68;3.95;;;7.90;99.90;;;;;;6152710;23;20045;-82
2023/01/08 04:31:52;;;;;;;11.07;4.15;;;7.90;99.90;;;;;;6152571;23;20076;-82
2023/01/08 04:34:17;;;;;;;6.95;3.83;;;7.90;99.90;;;;;;6154766;23;20014;-83
2023/01/08 04:36:43;;;;;;;10.07;4.65;;;7.90;99.90;;;;;;6153067;23;20326;-81
2023/01/08 04:39:10;;;;;;;13.57;4.50;;;7.90;99.90;;;;;;6152584;23;20017;-81
2023/01/08 04:41:35;;;;;;;10.40;4.45;;;7.90;99.90;;;;;;6128159;23;20009;-82
2023/01/08 04:44:01;;;;;;;11.50;4.43;;;8.00;99.90;;;;;;6152690;23;20392;-82
2023/01/08 04:46:27;;;;;;;10.38;4.80;;;8.00;99.90;;;;;;6127959;23;20096;-81
2023/01/08 04:48:53;;;;;;;9.05;4.68;;;8.00;99.90;;;;;;6152507;23;20017;-82
2023/01/08 04:51:18;;;;;;;9.43;4.28;;;8.10;99.90;;;;;;6153895;23;20060;-82
2023/01/08 04:53:45;;;;;;;8.65;4.28;;;8.10;99.90;;;;;;6154086;23;20009;-82
2023/01/08 04:56:10;;;;;;;7.70;4.43;;;8.10;99.90;;;;;;6152506;23;20089;-82
2023/01/08 04:58:37;;;;;;;8.27;4.25;;;8.10;99.90;;;;;;6152658;23;20052;-82
2023/01/08 05:01:16;;;;;;;9.70;4.65;;;8.20;99.90;;;;;;6154404;23;20045;-82
2023/01/08 05:03:42;;;;;;;12.15;5.15;;;8.20;99.90;;;;;;6127797;23;20014;-82
2023/01/08 05:06:08;;;;;;;13.50;5.03;;;8.20;99.90;;;;;;6154625;23;20021;-82
2023/01/08 05:08:34;;;;;;;8.82;4.97;;;8.20;99.90;;;;;;6152305;23;20014;-82
2023/01/08 05:11:00;;;;;;;9.23;4.47;;;8.20;99.90;;;;;;6128054;23;20467;-83
2023/01/08 05:13:26;;;;;;;7.60;4.03;;;8.20;99.90;;;;;;6154034;23;20013;-82
2023/01/08 05:15:52;;;;;;;8.98;4.18;;;8.20;99.90;;;;;;6152699;23;20025;-82
2023/01/08 05:18:17;;;;;;;8.35;4.05;;;8.20;99.90;;;;;;6152218;23;20021;-83
2023/01/08 05:20:43;;;;;;;10.30;3.90;;;8.20;99.90;;;;;;6154565;23;20034;-83
2023/01/08 05:23:09;;;;;;;8.68;3.67;;;8.20;99.90;;;;;;6153317;23;20013;-82
2023/01/08 05:25:34;;;;;;;6.85;3.45;;;8.20;99.90;;;;;;6153291;23;20017;-82
2023/01/08 05:28:00;;;;;;;8.60;4.13;;;8.20;99.90;;;;;;6152307;23;20412;-82
2023/01/08 05:30:26;;;;;;;4.75;3.33;;;8.20;99.90;;;;;;6153856;23;20084;-82
2023/01/08 05:32:51;;;;;;;8.73;2.90;;;8.20;99.90;;;;;;6151653;23;20444;-81
2023/01/08 05:35:18;;;;;;;5.97;3.00;;;8.20;99.90;;;;;;6154471;23;20014;-82
2023/01/08 05:37:44;;;;;;;5.55;3.03;;;8.20;99.90;;;;;;6153910;23;20025;-82
2023/01/08 05:40:10;;;;;;;6.93;2.95;;;8.20;99.90;;;;;;6154241;23;20021;-82
2023/01/08 05:42:36;;;;;;;5.88;3.25;;;8.20;99.90;;;;;;6154034;23;20017;-82
2023/01/08 05:45:04;;;;;;;8.40;3.00;;;8.10;99.90;;;;;;6154068;23;20020;-82
2023/01/08 05:47:30;;;;;;;7.95;2.72;;;8.10;99.90;;;;;;6151377;23;20911;-82
2023/01/08 05:49:56;;;;;;;8.02;3.22;;;8.10;99.90;;;;;;6153631;23;20088;-82
2023/01/08 05:52:22;;;;;;;7.75;3.17;;;8.00;99.90;;;;;;6154047;23;20051;-82
2023/01/08 05:54:47;;;;;;;8.65;3.05;;;8.00;99.90;;;;;;6152380;23;20393;-83
2023/01/08 05:57:13;;;;;;;6.43;2.90;;;8.10;99.90;;;;;;6151899;23;20020;-82
2023/01/08 05:59:38;;;;;;;6.55;3.00;;;8.10;99.90;;;;;;6152028;23;20365;-82
2023/01/08 06:02:04;;;;;;;7.70;3.00;;;8.10;99.90;;;;;;6153537;23;20014;-82
2023/01/08 06:04:30;;;;;;;7.63;3.72;;;8.10;99.90;;;;;;6153792;23;20013;-82
2023/01/08 06:06:55;;;;;;;7.55;3.22;;;8.10;99.90;;;;;;6151886;23;20356;-82
2023/01/08 06:09:21;;;;;;;7.13;3.33;;;8.10;99.90;;;;;;6152030;23;20017;-82
2023/01/08 06:11:46;;;;;;;5.88;2.95;;;8.10;99.90;;;;;;6154158;23;20068;-82
2023/01/08 06:14:14;;;;;;;7.18;3.05;;;8.00;99.90;;;;;;6153275;23;20384;-83
2023/01/08 06:16:41;;;;;;;7.50;3.45;;;8.00;99.90;;;;;;6151092;23;20035;-82
2023/01/08 06:19:11;;;;;;;8.10;3.92;;;8.00;99.90;;;;;;6152100;23;20101;-82
2023/01/08 06:21:37;;;;;;;7.18;3.35;;;8.10;99.90;;;;;;6151819;23;20017;-82
2023/01/08 06:24:03;;;;;;;9.27;3.40;;;8.10;99.90;;;;;;6153916;23;20095;-82
2023/01/08 06:26:29;;;;;;;7.78;3.65;;;8.10;99.90;;;;;;6128139;23;20017;-83
2023/01/08 06:28:54;;;;;;;9.30;4.00;;;8.10;99.90;;;;;;6151828;23;20045;-82
2023/01/08 06:31:29;;;;;;;8.95;3.60;;;8.10;99.90;;;;;;6151102;23;20049;-82
2023/01/08 06:33:54;;;;;;;8.98;3.90;;;8.10;99.90;;;;;;6151544;23;20009;-80
2023/01/08 06:36:20;;;;;;;7.85;4.13;;;8.10;99.90;;;;;;6150677;23;20059;-81
2023/01/08 06:38:48;;;;;;;9.82;4.25;;;8.00;99.90;;;;;;6151383;23;20044;-82
2023/01/08 06:41:14;;;;;;;8.20;3.90;;;8.00;99.90;;;;;;6151536;23;20041;-82
2023/01/08 06:43:39;;;;;;;7.25;4.22;;;8.00;99.90;;;;;;6151561;23;20239;-82
2023/01/08 06:46:07;;;;;;;9.68;3.90;;;8.00;99.90;;;;;;6150966;23;20083;-82
2023/01/08 06:48:33;;;;;;;11.10;4.60;;;8.00;99.90;;;;;;6151296;23;20017;-82
2023/01/08 06:50:59;;;;;;;8.15;4.22;;;8.00;99.90;;;;;;6152718;23;20340;-83
2023/01/08 06:53:25;;;;;;;9.13;3.92;;;7.90;99.90;;;;;;6151036;23;20467;-82
2023/01/08 06:55:55;;;;;;;9.13;4.82;;;7.90;99.90;;;;;;6151006;23;20013;-82
2023/01/08 06:58:22;;;;;;;10.95;4.50;;;7.80;99.90;;;;;;6151814;23;20013;-82
2023/01/08 07:00:47;;;;;;;9.95;4.40;;;7.90;99.90;;;;;;6151271;23;20013;-82
2023/01/08 07:03:13;;;;;;;11.05;4.00;;;7.80;99.90;;;;;;6151027;23;20479;-82
2023/01/08 07:05:39;;;;;;;10.18;4.28;;;7.80;99.90;;;;;;6150884;23;20024;-83
2023/01/08 07:08:04;;;;;;;8.73;3.67;;;7.80;99.90;;;;;;6152923;23;20112;-82
2023/01/08 07:10:30;;;;;;;10.23;4.40;;;7.90;99.90;;;;;;6153063;23;20036;-83
2023/01/08 07:12:56;;;;;;;8.48;4.07;;;7.80;99.90;;;;;;6151273;23;20025;-84
2023/01/08 07:15:22;;;;;;;11.02;4.32;;;7.80;99.90;;;;;;6150345;23;20045;-82
2023/01/08 07:17:47;;;;;;;6.70;3.40;;;7.80;99.90;;;;;;6151038;23;20018;-82
2023/01/08 07:20:13;;;;;;;10.57;3.90;;;7.70;99.90;;;;;;6152539;23;20084;-82
2023/01/08 07:22:39;;;;;;;10.50;3.50;;;7.70;99.90;;;;;;6152984;23;20277;-83
2023/01/08 07:25:06;;;;;;;14.98;3.38;;;7.70;99.90;;;;;;6150970;23;20429;-82
2023/01/08 07:27:31;;;;;;;12.70;3.80;;;7.70;99.90;;;;;;6152679;23;20024;-83
2023/01/08 07:29:57;;;;;;;9.00;3.50;;;7.80;99.90;;;;;;6150583;23;20013;-83
2023/01/08 07:32:22;;;;;;;6.97;3.08;;;7.60;99.90;;;;;;6150854;23;20017;-82
2023/01/08 07:34:48;;;;;;;9.93;3.40;;;7.60;99.90;;;;;;6152770;23;20041;-82
2023/01/08 07:37:14;;;;;;;13.55;3.83;;;7.50;99.90;;;;;;6150659;23;20348;-82
2023/01/08 07:39:39;;;;;;;11.00;3.72;;;7.50;99.90;;;;;;6152259;23;20076;-82
2023/01/08 07:42:05;;;;;;;9.63;4.05;;;7.40;99.90;;;;;;6151288;23;20013;-82
2023/01/08 07:44:31;;;;;;;14.02;3.83;;;7.40;99.90;;;;;;6152250;23;20017;-83
2023/01/08 07:46:56;;;;;;;13.88;3.78;;;7.40;99.90;;;;;;6154337;23;20009;-82
2023/01/08 07:49:22;;;;;;;8.98;3.20;;;7.30;99.90;;;;;;6153314;23;20021;-82
2023/01/08 07:51:51;;;;;;;7.95;3.50;;;7.30;99.90;;;;;;6152938;23;20105;-82
2023/01/08 07:54:16;;;;;;;15.10;3.95;;;7.30;99.90;;;;;;6154697;23;20049;-82
2023/01/08 07:56:42;;;;;;;14.30;3.60;;;7.30;99.90;;;;;;6152722;23;20040;-83
2023/01/08 07:59:07;;;;;;;7.88;3.90;;;7.30;99.90;;;;;;6153880;23;20061;-82
2023/01/08 08:01:33;;;;;;;8.38;3.60;;;7.30;99.90;;;;;;6152698;23;20305;-83
2023/01/08 08:03:59;;;;;;;12.52;4.60;;;7.30;99.90;;;;;;6154641;23;20017;-82
2023/01/08 08:06:24;;;;;;;17.33;5.00;;;7.30;99.90;;;;;;6152517;23;20108;-82
2023/01/08 08:08:50;;;;;;;10.48;4.90;;;7.40;99.90;;;;;;6152882;23;20032;-83
2023/01/08 08:11:15;;;;;;;12.98;5.32;;;7.30;99.90;;;;;;6152897;23;20024;-82
2023/01/08 08:13:43;;;;;;;14.35;5.10;;;7.20;99.90;;;;;;6151672;23;20029;-82
2023/01/08 08:16:10;;;;;;;11.05;4.88;;;7.20;99.90;;;;;;6154519;23;20021;-83
2023/01/08 08:18:36;;;;;;;15.73;5.45;;;7.60;99.90;;;;;;6154478;23;20032;-83
2023/01/08 08:21:02;;;;;;;14.60;5.28;;;7.10;99.90;;;;;;6128035;23;20294;-82
2023/01/08 08:23:28;;;;;;;10.30;5.03;;;7.10;99.90;;;;;;6152427;23;20085;-82
2023/01/08 08:25:54;;;;;;;11.63;5.22;;;7.50;99.90;;;;;;6153968;23;20333;-82
2023/01/08 08:28:19;;;;;;;10.23;4.60;;;7.10;99.90;;;;;;6151708;23;20014;-82
2023/01/08 08:30:45;;;;;;;11.23;4.50;;;7.50;99.90;;;;;;6152516;23;20017;-83
2023/01/08 08:33:11;;;;;;;13.70;4.68;;;7.00;99.90;;;;;;6154787;23;20029;-83
2023/01/08 08:35:37;;;;;;;11.38;5.15;;;7.10;99.90;;;;;;6153277;23;20021;-82
2023/01/08 08:38:03;;;;;;;17.52;4.82;;;7.00;99.90;;;;;;6127434;23;20017;-83
2023/01/08 08:40:29;;;;;;;13.25;4.25;;;7.00;99.90;;;;;;6152231;23;20013;-82
2023/01/08 08:43:00;;;;;;;13.88;4.53;;;7.10;99.90;;;;;;6151575;23;20013;-82
2023/01/08 08:45:26;;;;;;;12.10;3.85;;;7.10;99.90;;;;;;6151864;23;20021;-83
2023/01/08 08:47:52;;;;;;;10.48;3.75;;;7.10;99.90;;;;;;6152001;23;20017;-83
2023/01/08 08:50:18;;;;;;;9.55;3.65;;;7.10;99.90;;;;;;6152082;23;20045;-82
2023/01/08 08:52:44;;;;;;;12.23;3.70;;;7.10;99.90;;;;;;6154099;23;20085;-82
2023/01/08 08:55:14;;;;;;;12.15;4.10;;;7.10;99.90;;;;;;6152180;23;20468;-82
2023/01/08 08:57:40;;;;;;;17.65;4.57;;;7.10;99.90;;;;;;6127013;23;20025;-83
2023/01/08 09:00:07;;;;;;;13.52;3.97;;;7.10;99.90;;;;;;6151943;23;20255;-82
2023/01/08 09:02:32;;;;;;;15.65;3.97;;;7.10;99.90;;;;;;6152017;23;20384;-82
2023/01/08 09:04:59;;;;;;;10.90;3.90;;;7.30;99.90;;;;;;6151929;23;20064;-82
2023/01/08 09:07:24;;;;;;;12.57;4.63;;;7.50;99.90;;;;;;6152176;23;20017;-82
2023/01/08 09:09:50;;;;;;;11.57;3.65;;;7.40;99.90;;;;;;6153974;23;20096;-83
2023/01/08 09:12:17;;;;;;;12.82;4.07;;;7.10;99.90;;;;;;6153639;23;20448;-82
2023/01/08 09:14:42;;;;;;;9.90;3.70;;;7.10;99.90;;;;;;6153463;23;20014;-82
2023/01/08 09:17:08;;;;;;;10.13;3.75;;;7.20;99.90;;;;;;6152061;23;20061;-83
2023/01/08 09:19:34;;;;;;;15.45;4.32;;;7.20;99.90;;;;;;6152771;23;20072;-83
2023/01/08 09:22:01;;;;;;;12.82;4.53;;;7.20;99.90;;;;;;6151799;23;20017;-83
2023/01/08 09:24:27;;;;;;;10.30;3.70;;;7.20;99.90;;;;;;6151824;23;20401;-82
2023/01/08 09:26:53;;;;;;;11.18;3.40;;;7.30;99.90;;;;;;6126639;23;20041;-82
2023/01/08 09:29:19;;;;;;;11.57;3.63;;;7.30;99.90;;;;;;6151778;23;20018;-82
2023/01/08 09:31:45;;;;;;;8.50;3.83;;;7.30;99.90;;;;;;6151688;23;20017;-83
2023/01/08 09:34:11;;;;;;;9.80;4.10;;;7.30;99.90;;;;;;6127233;23;20093;-83
2023/01/08 09:36:37;;;;;;;11.45;3.40;;;7.30;99.90;;;;;;6151648;23;20064;-82
2023/01/08 09:39:03;;;;;;;9.85;3.60;;;7.40;99.90;;;;;;6151687;23;20009;-82
2023/01/08 09:41:33;;;;;;;12.18;3.28;;;7.30;99.90;;;;;;6151302;23;20013;-82
2023/01/08 09:44:01;;;;;;;12.10;3.20;;;7.40;99.90;;;;;;6151686;23;20377;-82
2023/01/08 09:46:28;;;;;;;8.80;3.25;;;7.30;99.90;;;;;;6151367;23;20017;-83
2023/01/08 09:48:58;;;;;;;12.43;3.42;;;7.40;99.90;;;;;;6151620;23;20013;-82
2023/01/08 09:51:30;;;;;;;10.70;3.25;;;7.40;99.90;;;;;;6151945;23;20367;-84
2023/01/08 09:53:58;;;;;;;9.25;3.25;;;7.40;99.90;;;;;;6151040;23;20040;-83
2023/01/08 09:56:28;;;;;;;8.30;3.20;;;7.50;99.90;;;;;;6152813;23;20390;-83
2023/01/08 09:58:57;;;;;;;12.57;3.28;;;7.40;99.90;;;;;;6151394;23;20014;-83
2023/01/08 10:01:37;;;;;;;8.90;2.90;;;7.80;99.90;;;;;;6151293;23;20577;-83
2023/01/08 10:04:05;;;;;;;11.70;3.30;;;7.50;99.90;;;;;;6152286;23;20017;-82
2023/01/08 10:06:31;;;;;;;9.45;3.65;;;7.50;99.90;;;;;;6154570;23;20036;-82
2023/01/08 10:08:57;;;;;;;8.75;3.05;;;7.50;99.90;;;;;;6151704;23;20021;-82
2023/01/08 10:11:25;;;;;;;8.52;3.15;;;7.50;99.90;;;;;;6151449;23;20013;-82
2023/01/08 10:13:56;;;;;;;13.07;3.05;;;7.50;99.90;;;;;;6151829;23;20028;-82
2023/01/08 10:16:29;;;;;;;13.02;3.10;;;7.50;99.90;;;;;;6151757;23;20412;-82
2023/01/08 10:18:56;;;;;;;10.52;3.20;;;7.50;99.90;;;;;;6151924;23;20009;-81
2023/01/08 10:21:29;;;;;;;12.95;3.55;;;7.50;99.90;;;;;;6152104;23;20024;-81
2023/01/08 10:23:55;;;;;;;;;;;7.60;99.90;;;;;;6153712;23;20009;-82
2023/01/08 10:26:38;;;;;;;10.38;3.33;;;7.60;99.90;;;;;;6151789;23;19916;-81
2023/01/08 10:29:19;;;;;;;15.35;4.03;;;7.70;99.90;;;;;;6154763;23;20294;-81
2023/01/08 10:31:51;;;;;;;15.80;3.58;;;7.70;99.90;;;;;;6152282;23;20428;-82
2023/01/08 10:34:30;;;;;;;20.42;4.30;;;7.80;99.90;;;;;;6152170;23;20096;-83
2023/01/08 10:36:56;;;;;;;15.02;3.67;;;7.70;99.90;;;;;;6151466;23;20081;-82
2023/01/08 10:39:27;;;;;;;18.92;3.13;;;7.80;99.90;;;;;;6153051;23;20037;-82
2023/01/08 10:41:55;;;;;;;12.02;2.92;;;7.80;99.90;;;;;;6153844;23;20066;-81
2023/01/08 10:44:23;;;;;;;11.02;2.65;;;7.90;99.90;;;;;;6126942;23;20076;-81
2023/01/08 10:46:53;;;;;;;11.63;2.80;;;7.90;99.90;;;;;;6153330;23;20014;-81
2023/01/08 10:49:22;;;;;;;18.45;3.78;;;8.40;99.90;;;;;;6154136;23;20603;-82
2023/01/08 10:51:50;;;;;;;12.85;3.08;;;8.00;99.90;;;;;;6153217;23;20075;-81
2023/01/08 10:54:33;;;;;;;18.75;3.60;;;8.10;99.90;;;;;;6151664;23;20080;-82
2023/01/08 10:56:59;;;;;;;9.70;3.10;;;8.10;99.90;;;;;;6151587;23;20024;-81
2023/01/08 10:59:25;;;;;;;16.55;3.13;;;8.10;99.90;;;;;;6153337;23;20021;-82
2023/01/08 11:01:56;;;;;;;15.88;3.22;;;8.10;99.90;;;;;;6151362;23;20014;-81
2023/01/08 11:04:32;;;;;;;14.73;3.88;;;8.40;99.90;;;;;;6151533;23;20021;-81
2023/01/08 11:07:04;;;;;;;10.70;2.92;;;8.10;99.90;;;;;;6152805;23;20016;-81
2023/01/08 11:09:33;;;;;;;11.68;2.83;;;8.10;99.90;;;;;;6151457;23;20032;-81
2023/01/08 11:11:59;;;;;;;19.10;3.20;;;8.10;99.90;;;;;;6151370;23;20013;-81
2023/01/08 11:14:33;;;;;;;18.08;3.80;;;8.20;99.90;;;;;;6151040;23;20157;-81
2023/01/08 11:17:01;;;;;;;17.85;2.80;;;8.20;99.90;;;;;;6152718;23;20041;-81
2023/01/08 11:19:32;;;;;;;15.00;3.13;;;8.20;99.90;;;;;;6151298;23;20377;-81
2023/01/08 11:22:24;;;;;;;14.88;2.97;;;8.20;99.90;;;;;;6153455;23;20041;-81
2023/01/08 11:24:52;;;;;;;14.82;3.35;;;8.20;99.90;;;;;;6141620;23;20020;-82
2023/01/08 11:27:40;;;;;;;18.77;4.30;;;8.30;99.90;;;;;;6154982;23;20348;-81
2023/01/08 11:30:12;;;;;;;13.15;3.15;;;8.30;99.90;;;;;;6153096;23;20009;-82
2023/01/08 11:32:49;;;;;;;14.90;3.10;;;8.30;99.90;;;;;;6155059;23;20016;-82
2023/01/08 11:35:23;;;;;;;17.05;3.42;;;8.30;99.90;;;;;;6128310;23;20468;-81
2023/01/08 11:37:50;;;;;;;13.40;3.17;;;8.40;99.90;;;;;;6155559;23;20014;-81
2023/01/08 11:40:20;;;;;;;15.85;3.33;;;8.40;99.90;;;;;;6153466;23;20084;-82
2023/01/08 11:43:06;;;;;;;13.20;3.45;;;8.70;99.90;;;;;;6153340;23;20005;-81
2023/01/08 11:45:57;;;;;;;18.95;3.78;;;8.50;99.90;;;;;;6155069;23;20391;-82
2023/01/08 11:48:48;;;;;;;13.45;3.28;;;8.50;99.90;;;;;;6155260;23;20021;-81
2023/01/08 11:51:32;;;;;;;14.20;3.30;;;8.70;99.90;;;;;;6152342;23;20013;-81
2023/01/08 11:54:16;;;;;;;19.15;4.05;;;8.60;99.90;;;;;;6154869;23;20010;-81
2023/01/08 11:57:04;;;;;;;12.90;3.53;;;8.60;99.90;;;;;;6153526;23;20017;-81
2023/01/08 12:00:07;;;;;;;16.65;4.50;;;8.70;99.90;;;;;;6153137;23;20017;-81
2023/01/08 12:02:39;;;;;;;15.30;3.67;;;8.70;99.90;;;;;;6128449;23;20018;-81
2023/01/08 12:05:32;;;;;;;16.58;3.50;;;8.80;99.90;;;;;;6152458;23;20017;-81
2023/01/08 12:07:59;;;;;;;15.48;3.25;;;8.70;99.90;;;;;;6153049;23;20029;-81
2023/01/08 12:10:27;;;;;;;18.60;3.97;;;8.80;99.90;;;;;;6153751;23;20056;-83
2023/01/08 12:13:12;;;;;;;15.55;3.70;;;8.70;99.90;;;;;;6129621;23;20416;-83
2023/01/08 12:15:46;;;;;;;14.90;3.72;;;8.70;99.90;;;;;;6155689;23;20020;-82
2023/01/08 12:18:33;;;;;;;18.63;4.10;;;8.70;99.90;;;;;;6154827;23;20437;-83
2023/01/08 12:21:19;;;;;;;16.00;4.45;;;8.70;99.90;;;;;;6153446;23;20436;-83
2023/01/08 12:24:15;;;;;;;17.33;3.55;;;8.70;99.90;;;;;;6129561;23;20021;-84
2023/01/08 12:26:49;;;;;;;15.77;4.10;;;8.70;99.90;;;;;;6129403;23;20433;-81
2023/01/08 12:29:15;;;;;;;15.60;3.53;;;8.80;99.90;;;;;;6152545;23;20053;-82
2023/01/08 12:31:52;;;;;;;11.38;3.63;;;8.80;99.90;;;;;;6154605;23;20330;-82
2023/01/08 12:34:30;;;;;;;17.83;4.07;;;8.90;99.90;;;;;;6153597;23;20025;-82
2023/01/08 12:37:09;;;;;;;19.92;4.55;;;8.90;99.90;;;;;;6152443;23;20018;-81
2023/01/08 12:39:45;;;;;;;10.18;2.95;;;8.90;99.90;;;;;;6154522;23;20009;-81
2023/01/08 12:42:15;;;;;;;16.92;3.72;;;8.90;99.90;;;;;;6152842;23;20348;-81
2023/01/08 12:44:42;;;;;;;13.13;3.53;;;8.90;99.90;;;;;;6154224;23;20021;-80
2023/01/08 12:47:15;;;;;;;17.60;3.25;;;8.80;99.90;;;;;;6152439;23;20072;-82
2023/01/08 12:50:03;;;;;;;15.20;3.85;;;8.80;99.90;;;;;;6151651;23;20084;-82
2023/01/08 12:52:41;;;;;;;15.80;4.07;;;8.80;99.90;;;;;;6152402;23;20009;-82
2023/01/08 12:55:24;;;;;;;15.23;3.38;;;8.80;99.90;;;;;;6154535;23;20415;-82
2023/01/08 12:58:03;;;;;;;;;;;8.80;99.90;;;;;;6152984;23;20018;-81
2023/01/08 13:00:40;;;;;;;11.77;3.08;;;8.80;99.90;;;;;;6153962;23;19920;-81
2023/01/08 13:03:13;;;;;;;18.13;3.55;;;8.80;99.90;;;;;;6153670;23;20042;-80
2023/01/08 13:05:41;;;;;;;;;;;8.70;99.90;;;;;;6152802;23;20019;-82